Time;durP1;ratioP1;P1;durP2;ratioP2;P2;SDS_P1;SDS_P2;PMS_P1;PMS_P2;Temp;Humidity;BMP_temperature;BMP_pressure;BME280_temperature;BME280_humidity;BME280_pressure;Samples;Min_cycle;Max_cycle;Signal;HPM_P1;HPM_P2
2022/03/10 00:00:35;;;;;;;43.17;28.67;;;3.70;68.30;;;;;;4922018;29;20215;-82
2022/03/10 00:03:03;;;;;;;48.53;27.52;;;3.60;68.30;;;;;;4927845;29;20213;-80
2022/03/10 00:05:30;;;;;;;40.28;28.23;;;3.60;68.60;;;;;;4927300;29;20207;-81
2022/03/10 00:07:56;;;;;;;44.10;28.23;;;3.50;68.80;;;;;;4928954;29;20714;-81
2022/03/10 00:10:23;;;;;;;45.63;28.67;;;3.50;68.90;;;;;;4923795;29;20237;-82
2022/03/10 00:12:51;;;;;;;51.05;29.60;;;3.50;68.70;;;;;;4921728;29;20208;-82
2022/03/10 00:15:20;;;;;;;37.55;27.77;;;3.50;68.40;;;;;;4923308;29;20206;-82
2022/03/10 00:17:47;;;;;;;43.27;28.50;;;3.60;68.20;;;;;;4924788;29;20227;-80
2022/03/10 00:20:15;;;;;;;41.20;27.10;;;3.60;67.70;;;;;;4933946;29;20450;-82
2022/03/10 00:22:49;;;;;;;40.10;27.52;;;3.60;67.80;;;;;;4920101;29;20211;-81
2022/03/10 00:25:17;;;;;;;44.10;29.00;;;3.60;67.90;;;;;;4919436;29;20270;-81
2022/03/10 00:27:44;;;;;;;42.80;29.02;;;3.50;67.90;;;;;;4917595;29;20466;-81
2022/03/10 00:30:11;;;;;;;43.17;27.95;;;3.50;68.20;;;;;;4918399;29;20200;-83
2022/03/10 00:32:46;;;;;;;39.10;28.00;;;3.50;68.50;;;;;;4919929;29;20218;-83
2022/03/10 00:35:18;;;;;;;38.90;25.40;;;3.40;68.50;;;;;;4921587;29;20463;-82
2022/03/10 00:37:46;;;;;;;35.53;24.63;;;3.40;68.70;;;;;;4920919;29;20631;-82
2022/03/10 00:40:14;;;;;;;47.70;29.05;;;3.40;68.80;;;;;;4922052;29;20274;-82
2022/03/10 00:42:42;;;;;;;41.78;27.15;;;3.40;68.80;;;;;;4920716;29;20254;-82
2022/03/10 00:45:09;;;;;;;39.27;26.00;;;3.40;68.80;;;;;;4920946;29;20723;-82
2022/03/10 00:47:36;;;;;;;43.80;28.67;;;3.40;68.90;;;;;;4935684;29;20441;-77
2022/03/10 00:50:04;;;;;;;44.33;27.30;;;3.30;68.90;;;;;;4937678;29;20454;-82
2022/03/10 00:52:33;;;;;;;40.55;26.70;;;3.30;69.40;;;;;;4921177;29;20206;-81
2022/03/10 00:54:59;;;;;;;38.17;25.67;;;3.20;69.90;;;;;;4933524;29;20212;-80
2022/03/10 00:57:26;;;;;;;38.17;26.45;;;3.00;70.70;;;;;;4935007;29;20208;-80
2022/03/10 00:59:53;;;;;;;40.97;26.02;;;2.90;71.30;;;;;;4932024;29;20229;-79
2022/03/10 01:02:19;;;;;;;40.85;26.40;;;2.90;72.00;;;;;;4925442;29;20693;-82
2022/03/10 01:04:46;;;;;;;50.95;27.38;;;2.90;71.90;;;;;;4923637;29;20203;-81
2022/03/10 01:07:13;;;;;;;39.25;26.92;;;2.90;72.10;;;;;;4922374;29;20610;-81
2022/03/10 01:09:41;;;;;;;43.05;27.40;;;2.90;72.20;;;;;;4929495;29;20226;-82
2022/03/10 01:12:08;;;;;;;45.40;27.98;;;3.00;72.20;;;;;;4930509;29;20216;-80
2022/03/10 01:14:35;;;;;;;39.42;25.83;;;2.90;72.00;;;;;;4923007;29;20235;-81
2022/03/10 01:17:01;;;;;;;41.10;27.03;;;3.00;72.60;;;;;;4930085;29;20247;-81
2022/03/10 01:19:29;;;;;;;47.55;29.38;;;2.90;72.30;;;;;;4927341;29;20546;-81
2022/03/10 01:21:56;;;;;;;42.55;29.08;;;3.00;72.50;;;;;;4920917;29;20207;-81
2022/03/10 01:24:22;;;;;;;41.30;26.23;;;3.00;72.40;;;;;;4920962;29;20215;-82
2022/03/10 01:26:50;;;;;;;46.10;27.02;;;3.00;72.40;;;;;;4936703;29;20512;-80
2022/03/10 01:29:17;;;;;;;40.80;25.63;;;3.00;72.40;;;;;;4926858;29;20236;-80
2022/03/10 01:31:44;;;;;;;39.30;27.40;;;3.00;72.60;;;;;;4927513;29;20207;-80
2022/03/10 01:34:11;;;;;;;41.50;28.45;;;3.00;72.70;;;;;;4928601;29;20218;-82
2022/03/10 01:36:37;;;;;;;38.20;27.27;;;2.90;72.60;;;;;;4921408;29;20203;-81
2022/03/10 01:39:05;;;;;;;40.63;27.23;;;2.90;73.00;;;;;;4919763;29;20306;-80
2022/03/10 01:41:33;;;;;;;39.35;27.48;;;2.90;73.10;;;;;;4919403;29;20635;-81
2022/03/10 01:44:03;;;;;;;42.70;28.40;;;2.80;73.40;;;;;;4920876;29;20287;-80
2022/03/10 01:46:30;;;;;;;39.70;26.67;;;2.70;74.00;;;;;;4920044;29;20902;-81
2022/03/10 01:48:57;;;;;;;45.38;28.73;;;2.70;74.10;;;;;;4920989;29;20234;-81
2022/03/10 01:51:25;;;;;;;45.58;27.73;;;2.70;74.20;;;;;;4919404;29;20277;-80
2022/03/10 01:53:52;;;;;;;40.33;27.23;;;2.70;74.30;;;;;;4922460;29;20213;-79
2022/03/10 01:56:19;;;;;;;40.33;28.00;;;2.70;74.50;;;;;;4925391;29;20209;-80
2022/03/10 01:58:47;;;;;;;46.30;27.15;;;2.70;74.40;;;;;;4925522;29;20232;-81
2022/03/10 02:01:15;;;;;;;40.38;27.85;;;2.70;74.80;;;;;;4919708;29;20238;-81
2022/03/10 02:03:42;;;;;;;41.30;28.23;;;2.70;74.80;;;;;;4920031;29;20298;-79
2022/03/10 02:06:10;;;;;;;46.72;28.48;;;2.60;74.80;;;;;;4920476;29;20230;-82
2022/03/10 02:11:22;;;;;;;39.20;27.17;;;2.50;75.40;;;;;;4921393;29;20201;-83
2022/03/10 02:13:48;;;;;;;45.92;27.45;;;2.50;75.70;;;;;;4919866;29;20206;-81
2022/03/10 02:19:03;;;;;;;40.25;28.17;;;2.40;76.20;;;;;;4925869;29;20286;-82
2022/03/10 02:21:29;;;;;;;40.38;27.25;;;2.40;76.60;;;;;;4920059;29;20207;-82
2022/03/10 02:23:58;;;;;;;39.05;25.85;;;2.40;76.40;;;;;;4921813;29;20661;-80
2022/03/10 02:26:24;;;;;;;39.55;28.45;;;2.40;77.00;;;;;;4941702;29;20234;-80
2022/03/10 02:28:51;;;;;;;40.20;27.23;;;2.30;76.90;;;;;;4941189;29;20211;-79
2022/03/10 02:31:18;;;;;;;46.65;26.35;;;2.20;77.30;;;;;;4935310;29;20201;-81
2022/03/10 02:33:45;;;;;;;41.97;26.88;;;2.20;77.50;;;;;;4919190;29;20203;-81
2022/03/10 02:36:12;;;;;;;43.78;26.52;;;2.20;77.60;;;;;;4931418;29;20194;-80
2022/03/10 02:38:38;;;;;;;39.97;26.70;;;2.30;77.60;;;;;;4931181;29;20239;-80
2022/03/10 02:41:06;;;;;;;41.70;26.58;;;2.20;77.60;;;;;;4923428;29;20206;-81
2022/03/10 02:43:33;;;;;;;43.45;26.77;;;2.20;77.80;;;;;;4926047;29;20206;-81
2022/03/10 02:46:00;;;;;;;41.55;27.08;;;2.20;78.00;;;;;;4924398;29;20211;-81
2022/03/10 02:48:26;;;;;;;38.20;25.98;;;2.10;77.80;;;;;;4923473;29;20237;-81
2022/03/10 02:50:53;;;;;;;41.08;28.08;;;2.00;78.30;;;;;;4923726;29;20210;-81
2022/03/10 02:53:20;;;;;;;42.20;27.90;;;2.10;78.60;;;;;;4925805;29;20215;-80
2022/03/10 02:55:46;;;;;;;39.00;26.73;;;2.10;78.40;;;;;;4927260;29;20215;-80
2022/03/10 02:58:15;;;;;;;42.38;27.05;;;2.10;78.20;;;;;;4933823;29;20210;-80
2022/03/10 03:00:41;;;;;;;43.22;28.08;;;2.00;78.50;;;;;;4932995;29;20216;-80
2022/03/10 03:03:08;;;;;;;42.42;27.55;;;2.00;79.00;;;;;;4926885;29;20270;-80
2022/03/10 03:05:35;;;;;;;42.60;25.63;;;2.00;79.00;;;;;;4931771;29;20278;-80
2022/03/10 03:08:02;;;;;;;41.88;27.20;;;2.00;78.90;;;;;;4934497;29;20241;-81
2022/03/10 03:10:29;;;;;;;44.13;26.63;;;2.00;78.90;;;;;;4926538;29;20588;-81
2022/03/10 03:12:55;;;;;;;39.80;27.48;;;2.00;78.80;;;;;;4924288;29;20211;-80
2022/03/10 03:15:23;;;;;;;46.45;28.10;;;1.90;78.80;;;;;;4929246;29;20211;-81
2022/03/10 03:17:50;;;;;;;39.83;26.75;;;1.80;79.10;;;;;;4930777;29;20206;-81
2022/03/10 03:20:17;;;;;;;41.50;26.42;;;1.80;79.20;;;;;;4928023;29;20203;-81
2022/03/10 03:22:45;;;;;;;40.72;26.20;;;1.70;79.20;;;;;;4926637;29;20258;-81
2022/03/10 03:25:14;;;;;;;44.30;29.25;;;1.70;79.50;;;;;;4921880;29;20586;-81
2022/03/10 03:27:41;;;;;;;36.65;26.08;;;1.70;79.50;;;;;;4923716;29;20259;-81
2022/03/10 03:30:08;;;;;;;43.67;27.90;;;1.70;79.50;;;;;;4922300;29;20674;-81
2022/03/10 03:32:37;;;;;;;41.85;27.90;;;1.70;79.60;;;;;;4921884;29;20208;-81
2022/03/10 03:35:05;;;;;;;35.60;24.33;;;1.70;79.90;;;;;;4921455;29;20210;-80
2022/03/10 03:37:31;;;;;;;43.38;28.98;;;1.70;80.00;;;;;;4921817;29;20681;-81
2022/03/10 03:39:58;;;;;;;43.47;27.48;;;1.80;79.80;;;;;;4920842;29;20239;-81
2022/03/10 03:42:25;;;;;;;46.50;28.40;;;1.80;79.50;;;;;;4921860;29;20207;-81
2022/03/10 03:44:51;;;;;;;45.70;30.00;;;1.80;79.40;;;;;;4936263;29;20207;-80
2022/03/10 03:47:18;;;;;;;41.03;25.90;;;1.80;79.30;;;;;;4929243;29;20229;-81
2022/03/10 03:49:46;;;;;;;38.10;24.58;;;1.70;79.10;;;;;;4921310;29;20231;-81
2022/03/10 03:52:13;;;;;;;36.53;24.70;;;1.60;79.30;;;;;;4921911;29;20257;-81
2022/03/10 03:54:39;;;;;;;42.10;29.80;;;1.50;80.20;;;;;;4921848;29;20213;-81
2022/03/10 03:57:06;;;;;;;51.15;28.23;;;1.40;80.70;;;;;;4923758;29;20203;-80
2022/03/10 03:59:33;;;;;;;42.42;27.00;;;1.30;81.10;;;;;;4921264;29;20829;-82
2022/03/10 04:01:59;;;;;;;41.15;24.92;;;1.30;81.90;;;;;;4920753;29;20563;-81
2022/03/10 04:04:26;;;;;;;37.92;25.17;;;1.40;81.70;;;;;;4921584;29;20639;-80
2022/03/10 04:06:54;;;;;;;45.38;27.38;;;1.40;81.40;;;;;;4929225;29;20238;-80
2022/03/10 04:09:21;;;;;;;45.47;26.83;;;1.50;80.70;;;;;;4931627;29;20247;-79
2022/03/10 04:11:48;;;;;;;37.85;25.30;;;1.60;80.00;;;;;;4930501;29;20214;-81
2022/03/10 04:14:14;;;;;;;41.08;26.90;;;1.60;79.80;;;;;;4923653;29;20211;-81
2022/03/10 04:16:41;;;;;;;40.47;27.58;;;1.60;79.20;;;;;;4931531;29;20243;-80
2022/03/10 04:19:08;;;;;;;37.45;26.15;;;1.70;79.10;;;;;;4937856;29;20226;-80
2022/03/10 04:21:34;;;;;;;35.70;24.88;;;1.60;78.40;;;;;;4930069;29;20207;-82
2022/03/10 04:24:03;;;;;;;36.65;24.02;;;1.50;78.40;;;;;;4929408;29;20222;-80
2022/03/10 04:26:29;;;;;;;34.35;23.90;;;1.30;79.80;;;;;;4929581;29;20249;-80
2022/03/10 04:28:56;;;;;;;43.40;26.42;;;1.30;80.70;;;;;;4927507;29;20234;-81
2022/03/10 04:31:23;;;;;;;36.65;24.15;;;1.30;80.70;;;;;;4926838;29;20210;-82
2022/03/10 04:33:52;;;;;;;37.58;24.58;;;1.30;80.20;;;;;;4921733;29;20214;-82
2022/03/10 04:36:19;;;;;;;37.92;24.33;;;1.30;80.00;;;;;;4921810;29;20412;-82
2022/03/10 04:38:46;;;;;;;43.58;26.85;;;1.40;79.60;;;;;;4920506;29;20241;-81
2022/03/10 04:41:14;;;;;;;38.75;25.58;;;1.30;79.40;;;;;;4920753;29;20250;-82
2022/03/10 04:43:41;;;;;;;39.85;26.48;;;1.30;79.40;;;;;;4920566;29;20663;-81
2022/03/10 04:46:08;;;;;;;33.20;23.77;;;1.40;79.20;;;;;;4921289;29;20207;-81
2022/03/10 04:48:34;;;;;;;38.80;25.50;;;1.50;78.80;;;;;;4920150;29;20231;-82
2022/03/10 04:51:02;;;;;;;45.30;26.70;;;1.40;78.20;;;;;;4918035;29;20624;-80
2022/03/10 04:53:28;;;;;;;41.08;26.30;;;1.50;78.40;;;;;;4928048;29;20241;-80
2022/03/10 04:55:55;;;;;;;37.95;25.17;;;1.50;78.30;;;;;;4924700;29;20206;-80
2022/03/10 04:58:23;;;;;;;41.22;26.10;;;1.40;78.60;;;;;;4934627;29;20226;-80
2022/03/10 05:00:50;;;;;;;36.00;26.02;;;1.40;79.80;;;;;;4923476;29;20301;-81
2022/03/10 05:03:17;;;;;;;39.83;26.52;;;1.30;80.10;;;;;;4920606;29;20662;-82
2022/03/10 05:05:44;;;;;;;35.38;22.58;;;1.30;80.80;;;;;;4919821;29;20211;-81
2022/03/10 05:08:10;;;;;;;43.10;27.08;;;1.20;80.80;;;;;;4920833;29;20234;-81
2022/03/10 05:10:37;;;;;;;45.58;26.77;;;1.20;80.90;;;;;;4920290;29;20705;-82
2022/03/10 05:13:04;;;;;;;37.80;26.10;;;1.20;81.10;;;;;;4921992;29;20213;-81
2022/03/10 05:15:32;;;;;;;44.60;27.15;;;1.10;81.40;;;;;;4920476;29;20773;-82
2022/03/10 05:18:00;;;;;;;32.97;23.17;;;1.20;81.30;;;;;;4932416;29;20234;-80
2022/03/10 05:20:27;;;;;;;39.60;24.00;;;1.10;81.50;;;;;;4928261;29;20202;-82
2022/03/10 05:22:56;;;;;;;40.90;25.80;;;1.10;81.80;;;;;;4920595;29;20211;-82
2022/03/10 05:25:25;;;;;;;38.25;25.27;;;1.10;81.80;;;;;;4923826;29;20724;-80
2022/03/10 05:27:53;;;;;;;41.13;25.42;;;1.10;81.60;;;;;;4931398;29;20286;-81
2022/03/10 05:30:21;;;;;;;38.28;25.98;;;1.00;81.70;;;;;;4919978;29;20262;-81
2022/03/10 05:32:50;;;;;;;41.30;26.13;;;0.90;81.90;;;;;;4920374;29;20203;-82
2022/03/10 05:35:17;;;;;;;38.85;25.85;;;1.00;81.90;;;;;;4920378;29;20619;-81
2022/03/10 05:37:45;;;;;;;51.92;26.58;;;1.00;81.70;;;;;;4921790;29;20237;-82
2022/03/10 05:40:14;;;;;;;42.90;23.13;;;1.00;81.80;;;;;;4950732;23;20257;-86
2022/03/10 05:42:42;;;;;;;39.67;25.80;;;1.10;81.40;;;;;;4935746;29;20661;-85
2022/03/10 05:45:10;;;;;;;38.28;25.60;;;1.10;80.30;;;;;;4936536;29;20217;-85
2022/03/10 05:47:39;;;;;;;40.88;24.13;;;1.10;80.50;;;;;;4919200;29;20732;-85
2022/03/10 05:50:09;;;;;;;37.88;24.95;;;1.20;79.90;;;;;;4935996;29;20249;-86
2022/03/10 05:52:36;;;;;;;42.28;26.80;;;1.20;79.60;;;;;;4940258;29;20209;-85
2022/03/10 05:55:03;;;;;;;38.17;24.88;;;1.20;79.90;;;;;;4957914;28;20198;-85
2022/03/10 05:57:30;;;;;;;40.50;23.85;;;1.20;79.40;;;;;;4951987;28;20206;-85
2022/03/10 05:59:56;;;;;;;35.67;25.95;;;1.30;78.90;;;;;;4938975;29;20230;-85
2022/03/10 06:02:23;;;;;;;32.42;23.73;;;1.30;78.00;;;;;;4939476;29;20685;-85
2022/03/10 06:04:50;;;;;;;42.88;26.83;;;1.40;77.20;;;;;;4939295;29;20206;-86
2022/03/10 06:07:18;;;;;;;40.35;25.80;;;1.40;76.90;;;;;;4936369;29;20237;-85
2022/03/10 06:09:45;;;;;;;42.78;28.17;;;1.40;77.10;;;;;;4939158;29;20595;-86
2022/03/10 06:12:12;;;;;;;42.78;26.60;;;1.40;77.10;;;;;;4942355;29;20221;-86
2022/03/10 06:14:38;;;;;;;43.38;27.13;;;1.40;77.20;;;;;;4943903;29;20257;-86
2022/03/10 06:17:05;;;;;;;45.65;25.45;;;1.30;77.30;;;;;;4942653;29;20700;-86
2022/03/10 06:19:32;;;;;;;39.22;27.48;;;1.40;77.60;;;;;;4943757;29;20253;-86
2022/03/10 06:21:59;;;;;;;42.47;25.05;;;1.40;77.20;;;;;;4943072;29;20214;-86
2022/03/10 06:24:27;;;;;;;50.53;27.70;;;1.40;77.10;;;;;;4942661;29;20213;-86
2022/03/10 06:26:53;;;;;;;47.90;26.60;;;1.40;76.80;;;;;;4943953;29;20228;-86
2022/03/10 06:29:20;;;;;;;37.65;25.25;;;1.40;76.60;;;;;;4942769;29;20233;-86
2022/03/10 06:31:47;;;;;;;39.60;23.98;;;1.40;76.50;;;;;;4942141;29;20206;-86
2022/03/10 06:34:14;;;;;;;42.78;27.17;;;1.40;76.40;;;;;;4942983;29;20213;-86
2022/03/10 06:36:40;;;;;;;41.08;26.95;;;1.50;76.90;;;;;;4959539;29;20255;-86
2022/03/10 06:39:07;;;;;;;43.13;27.75;;;1.50;77.20;;;;;;4946732;29;20234;-86
2022/03/10 06:41:35;;;;;;;35.00;25.55;;;1.60;76.90;;;;;;4941991;29;20210;-86
2022/03/10 06:44:03;;;;;;;40.65;25.83;;;1.60;76.50;;;;;;4943260;29;20210;-84
2022/03/10 06:46:30;;;;;;;34.83;24.88;;;1.60;76.30;;;;;;4942935;29;20635;-86
2022/03/10 06:48:57;;;;;;;32.83;24.20;;;1.60;75.70;;;;;;4944578;29;20241;-86
2022/03/10 06:51:23;;;;;;;32.75;23.20;;;1.60;75.00;;;;;;4942775;29;20597;-86
2022/03/10 06:53:50;;;;;;;39.88;25.70;;;1.60;74.90;;;;;;4943005;29;20688;-85
2022/03/10 06:56:17;;;;;;;38.30;25.88;;;1.70;75.30;;;;;;4947983;29;20198;-86
2022/03/10 06:58:45;;;;;;;43.92;27.52;;;1.70;75.20;;;;;;4954519;29;20236;-87
2022/03/10 07:01:12;;;;;;;42.70;26.10;;;1.80;75.20;;;;;;4943979;29;20201;-87
2022/03/10 07:03:38;;;;;;;41.38;26.02;;;1.80;75.90;;;;;;4945053;29;20229;-85
2022/03/10 07:06:05;;;;;;;34.88;25.02;;;1.90;75.60;;;;;;4944760;29;20206;-86
2022/03/10 07:08:32;;;;;;;41.53;26.65;;;2.00;75.90;;;;;;4944188;29;20240;-86
2022/03/10 07:10:59;;;;;;;36.58;25.75;;;2.10;75.20;;;;;;4943885;29;20206;-86
2022/03/10 07:13:25;;;;;;;37.85;24.50;;;2.20;74.80;;;;;;4944021;29;20202;-85
2022/03/10 07:15:54;;;;;;;37.97;24.70;;;2.30;73.90;;;;;;4945349;29;20261;-85
2022/03/10 07:18:20;;;;;;;40.13;25.63;;;2.40;73.30;;;;;;4963800;28;20204;-85
2022/03/10 07:20:48;;;;;;;35.28;25.25;;;2.50;72.80;;;;;;4962230;29;20221;-85
2022/03/10 07:23:14;;;;;;;40.58;26.45;;;2.50;72.20;;;;;;4957503;29;20197;-85
2022/03/10 07:25:43;;;;;;;39.63;26.27;;;2.50;72.00;;;;;;4961723;29;20190;-85
2022/03/10 07:28:09;;;;;;;40.15;26.10;;;2.60;71.70;;;;;;4957264;29;20246;-85
2022/03/10 07:30:36;;;;;;;35.08;25.10;;;2.70;71.40;;;;;;4948903;29;20217;-86
2022/03/10 07:33:05;;;;;;;38.03;24.83;;;2.70;71.00;;;;;;4939601;29;20210;-86
2022/03/10 07:35:32;;;;;;;43.30;26.40;;;2.80;70.70;;;;;;4942852;29;20202;-86
2022/03/10 07:37:59;;;;;;;46.78;27.58;;;2.90;70.80;;;;;;4954039;28;20195;-86
2022/03/10 07:40:26;;;;;;;53.85;29.10;;;3.00;70.90;;;;;;4941496;29;20242;-86
2022/03/10 07:42:53;;;;;;;40.05;25.92;;;3.10;70.90;;;;;;4957777;29;20217;-86
2022/03/10 07:45:19;;;;;;;43.20;26.10;;;3.20;70.70;;;;;;4943486;29;20210;-86
2022/03/10 07:47:46;;;;;;;52.30;26.75;;;3.30;70.20;;;;;;4940866;28;20230;-86
2022/03/10 07:50:14;;;;;;;48.55;29.77;;;3.40;70.30;;;;;;4938434;29;20229;-85
2022/03/10 07:52:42;;;;;;;37.63;26.25;;;3.50;70.40;;;;;;4938822;29;20202;-86
2022/03/10 07:55:13;;;;;;;48.20;30.67;;;3.70;69.50;;;;;;4939658;29;20623;-86
2022/03/10 07:57:40;;;;;;;44.63;27.60;;;3.80;68.80;;;;;;4928565;29;20207;-86
2022/03/10 08:00:08;;;;;;;42.80;28.70;;;4.00;68.10;;;;;;4940247;29;20304;-86
2022/03/10 08:02:35;;;;;;;37.42;26.05;;;4.10;68.20;;;;;;4950937;29;20267;-85
2022/03/10 08:05:01;;;;;;;38.20;27.80;;;4.40;67.80;;;;;;4962984;28;20277;-85
2022/03/10 08:07:32;;;;;;;40.63;26.43;;;5.10;66.20;;;;;;4962016;28;20443;-87
2022/03/10 08:09:59;;;;;;;39.63;26.63;;;6.20;63.50;;;;;;4960891;28;20459;-86
2022/03/10 08:12:27;;;;;;;37.10;26.90;;;6.90;60.00;;;;;;4946284;29;20442;-85
2022/03/10 08:15:05;;;;;;;40.80;26.70;;;7.80;58.30;;;;;;4941388;29;20497;-92
2022/03/10 08:17:32;;;;;;;48.80;26.80;;;8.10;56.00;;;;;;4940751;29;20508;-86
2022/03/10 08:20:02;;;;;;;44.87;26.40;;;8.90;55.10;;;;;;4951880;29;20538;-84
2022/03/10 08:22:30;;;;;;;33.27;26.17;;;9.70;52.80;;;;;;4946070;29;20435;-85
2022/03/10 08:24:56;;;;;;;33.80;26.10;;;10.10;50.80;;;;;;4927164;29;20876;-84
2022/03/10 08:27:23;;;;;;;42.10;25.17;;;10.20;49.70;;;;;;4928359;29;20454;-85
2022/03/10 08:29:50;;;;;;;30.27;25.23;;;10.50;49.50;;;;;;4921000;29;20523;-85
2022/03/10 08:32:16;;;;;;;35.67;28.67;;;11.10;49.00;;;;;;4934024;29;20461;-85
2022/03/10 08:34:43;;;;;;;33.73;25.40;;;11.70;47.50;;;;;;4936936;29;20454;-85
2022/03/10 08:37:10;;;;;;;28.83;24.30;;;12.80;46.40;;;;;;4935816;29;20458;-86
2022/03/10 08:39:38;;;;;;;28.87;23.23;;;14.00;44.00;;;;;;4923245;29;20486;-85
2022/03/10 08:42:06;;;;;;;25.17;22.37;;;14.40;42.10;;;;;;4924935;29;20510;-87
2022/03/10 08:44:32;;;;;;;29.83;22.63;;;14.70;41.70;;;;;;4931375;29;20459;-86
2022/03/10 08:46:59;;;;;;;24.73;21.93;;;15.10;40.80;;;;;;4945195;29;20483;-85
2022/03/10 08:49:26;;;;;;;26.80;23.80;;;16.00;39.70;;;;;;4949170;29;20495;-86
2022/03/10 08:51:52;;;;;;;25.27;21.73;;;16.00;37.80;;;;;;4937548;29;20449;-86
2022/03/10 08:54:19;;;;;;;31.40;23.10;;;15.30;38.80;;;;;;4934366;29;20454;-85
2022/03/10 08:56:48;;;;;;;26.40;23.57;;;15.30;38.80;;;;;;4930223;29;20518;-84
2022/03/10 08:59:15;;;;;;;25.03;22.43;;;15.90;38.70;;;;;;4920751;29;20563;-85
2022/03/10 09:01:42;;;;;;;23.73;21.17;;;16.00;38.60;;;;;;4917984;29;20489;-86
2022/03/10 09:04:08;;;;;;;25.37;21.13;;;16.10;38.00;;;;;;4919496;29;20458;-86
2022/03/10 09:06:35;;;;;;;22.40;20.20;;;17.00;37.30;;;;;;4951890;28;20544;-84
2022/03/10 09:09:03;;;;;;;25.20;22.10;;;17.50;36.60;;;;;;4922991;29;20490;-85
2022/03/10 09:11:30;;;;;;;24.10;21.70;;;16.90;36.90;;;;;;4926703;29;20864;-86
2022/03/10 09:13:59;;;;;;;29.23;24.13;;;18.00;36.80;;;;;;4936360;29;20454;-86
2022/03/10 09:16:26;;;;;;;24.47;22.17;;;19.30;35.60;;;;;;4930705;29;20800;-86
2022/03/10 09:18:53;;;;;;;23.80;21.30;;;19.40;34.20;;;;;;4953126;29;20506;-86
2022/03/10 09:21:20;;;;;;;25.90;22.50;;;19.80;34.00;;;;;;4941686;29;20459;-86
2022/03/10 09:23:47;;;;;;;24.97;22.33;;;21.10;33.40;;;;;;4917745;29;20492;-87
2022/03/10 09:26:15;;;;;;;26.03;23.43;;;22.30;32.30;;;;;;4935545;29;20981;-86
2022/03/10 09:28:43;;;;;;;24.77;21.87;;;23.00;30.70;;;;;;4937626;29;20496;-86
2022/03/10 09:31:12;;;;;;;25.73;23.10;;;23.20;30.00;;;;;;4935977;29;20451;-86
2022/03/10 09:33:39;;;;;;;24.60;22.20;;;24.30;29.60;;;;;;4947009;29;20462;-87
2022/03/10 09:36:06;;;;;;;24.83;22.13;;;25.00;28.50;;;;;;4941249;29;20501;-86
2022/03/10 09:38:33;;;;;;;27.27;24.47;;;25.60;28.30;;;;;;4940862;29;20811;-86
2022/03/10 09:40:59;;;;;;;26.53;23.07;;;25.70;27.70;;;;;;4940402;29;20455;-86
2022/03/10 09:43:29;;;;;;;25.87;23.23;;;26.50;27.30;;;;;;4946964;29;20454;-86
2022/03/10 09:45:56;;;;;;;23.80;21.30;;;26.30;27.00;;;;;;4941781;28;20457;-86
2022/03/10 09:48:40;;;;;;;24.77;22.03;;;24.80;27.90;;;;;;4938159;29;20808;-88
2022/03/10 09:51:08;;;;;;;24.73;22.10;;;26.40;27.40;;;;;;4939467;29;20452;-87
2022/03/10 09:53:35;;;;;;;22.63;20.53;;;27.90;26.60;;;;;;4951871;28;20970;-88
2022/03/10 09:56:03;;;;;;;24.90;22.70;;;29.10;25.20;;;;;;4942052;29;20837;-88
2022/03/10 09:58:30;;;;;;;22.40;20.40;;;28.30;25.20;;;;;;4939983;29;20492;-88
2022/03/10 10:01:00;;;;;;;23.23;21.20;;;28.30;25.60;;;;;;4941793;29;20508;-88
2022/03/10 10:03:27;;;;;;;21.80;19.90;;;28.60;25.00;;;;;;4947894;29;20461;-85
2022/03/10 10:06:07;;;;;;;20.47;18.67;;;29.30;24.80;;;;;;4944510;29;20849;-86
2022/03/10 10:08:34;;;;;;;21.30;19.20;;;29.70;23.90;;;;;;4945815;29;20469;-86
2022/03/10 10:11:14;;;;;;;21.70;19.57;;;30.30;23.90;;;;;;4943731;29;20462;-86
2022/03/10 10:13:42;;;;;;;19.70;17.90;;;30.80;23.40;;;;;;4939716;29;20444;-86
2022/03/10 10:16:10;;;;;;;20.57;18.70;;;29.20;24.10;;;;;;4944686;29;20452;-88
2022/03/10 10:18:38;;;;;;;19.37;17.67;;;28.10;24.40;;;;;;4942009;29;20484;-88
2022/03/10 10:21:08;;;;;;;20.70;18.90;;;27.80;25.10;;;;;;4945273;29;20995;-90
2022/03/10 10:23:36;;;;;;;21.73;19.40;;;27.80;25.20;;;;;;4939912;29;20544;-89
2022/03/10 10:26:05;;;;;;;17.10;15.50;;;28.40;24.30;;;;;;4940234;29;20446;-89
2022/03/10 10:28:35;;;;;;;18.00;16.50;;;27.80;24.60;;;;;;4938540;29;20468;-89
2022/03/10 10:31:03;;;;;;;18.37;16.53;;;28.10;24.80;;;;;;4934975;29;20885;-88
2022/03/10 10:33:31;;;;;;;17.80;16.07;;;27.80;24.40;;;;;;4934016;29;20455;-88
2022/03/10 10:36:23;;;;;;;17.07;15.63;;;28.30;25.00;;;;;;4938362;29;20454;-88
2022/03/10 10:38:51;;;;;;;16.60;15.30;;;29.20;24.30;;;;;;4940599;29;20489;-89
2022/03/10 10:41:26;;;;;;;15.67;14.27;;;29.80;23.40;;;;;;4934902;29;20458;-88
2022/03/10 10:43:56;;;;;;;15.17;13.70;;;29.10;23.70;;;;;;4942425;29;21214;-89
2022/03/10 10:46:31;;;;;;;17.23;14.97;;;28.10;23.40;;;;;;4940654;29;20456;-89
2022/03/10 10:49:01;;;;;;;18.30;16.53;;;26.70;24.90;;;;;;4945215;29;20493;-89
2022/03/10 10:51:34;;;;;;;14.60;13.30;;;27.00;25.50;;;;;;4946084;29;20520;-89
2022/03/10 10:54:01;;;;;;;15.03;13.67;;;27.80;24.90;;;;;;4939345;29;20457;-88
2022/03/10 10:56:30;;;;;;;14.20;12.93;;;28.10;23.90;;;;;;4951253;29;20450;-88
2022/03/10 10:58:57;;;;;;;12.30;11.23;;;27.70;23.90;;;;;;4943676;29;20519;-89
2022/03/10 11:01:32;;;;;;;10.10;9.17;;;28.90;23.30;;;;;;4950495;29;20465;-89
2022/03/10 11:03:59;;;;;;;9.27;8.47;;;30.10;23.00;;;;;;4954255;29;20480;-89
2022/03/10 11:06:26;;;;;;;8.93;6.57;;;28.50;22.30;;;;;;4945491;29;20449;-88
2022/03/10 11:08:55;;;;;;;5.53;5.07;;;27.90;22.90;;;;;;4937639;29;20475;-89
2022/03/10 11:11:22;;;;;;;6.90;4.37;;;27.00;23.10;;;;;;4954013;28;20432;-89
2022/03/10 11:13:49;;;;;;;5.57;5.07;;;25.40;23.10;;;;;;4969549;28;20447;-89
2022/03/10 11:16:17;;;;;;;5.70;4.73;;;24.30;24.80;;;;;;4958354;29;20844;-89
2022/03/10 11:18:51;;;;;;;4.87;4.47;;;24.20;25.30;;;;;;4949333;29;20471;-89
2022/03/10 11:21:50;;;;;;;5.17;4.60;;;24.70;25.40;;;;;;4939512;29;20491;-89
2022/03/10 11:25:03;;;;;;;4.60;4.10;;;23.60;24.90;;;;;;4936618;29;20459;-89
2022/03/10 11:27:34;;;;;;;6.30;4.97;;;25.40;25.20;;;;;;4920911;29;20451;-87
2022/03/10 11:30:03;;;;;;;5.43;5.03;;;26.20;24.40;;;;;;4935773;29;20481;-88
2022/03/10 11:32:31;;;;;;;4.90;4.23;;;26.30;23.60;;;;;;4945949;29;20452;-88
2022/03/10 11:35:00;;;;;;;5.40;4.90;;;25.80;23.90;;;;;;4943436;29;20447;-87
2022/03/10 11:37:51;;;;;;;5.63;5.10;;;24.30;24.60;;;;;;4936224;29;20836;-89
2022/03/10 11:40:38;;;;;;;6.33;5.00;;;23.00;25.60;;;;;;4928512;29;20493;-89
2022/03/10 11:43:05;;;;;;;5.20;4.70;;;23.20;25.40;;;;;;4932647;29;20452;-89
2022/03/10 11:45:32;;;;;;;4.67;4.17;;;22.90;25.60;;;;;;4942191;29;20867;-88
2022/03/10 11:48:33;;;;;;;4.70;4.00;;;23.00;25.40;;;;;;4936355;29;20542;-89
2022/03/10 11:51:08;;;;;;;4.20;3.30;;;22.70;25.20;;;;;;4932176;29;20460;-89
2022/03/10 11:54:06;;;;;;;4.57;4.17;;;23.60;25.00;;;;;;4920590;29;20475;-89
2022/03/10 11:57:06;;;;;;;3.80;3.37;;;24.10;24.40;;;;;;4917678;29;20439;-89
2022/03/10 11:59:52;;;;;;;4.40;3.50;;;23.70;24.00;;;;;;4925045;29;20487;-87
2022/03/10 12:02:43;;;;;;;3.73;3.33;;;23.90;23.90;;;;;;4921781;29;20455;-88
2022/03/10 12:05:12;;;;;;;3.37;3.07;;;23.80;24.30;;;;;;4922003;29;20895;-88
2022/03/10 12:07:45;;;;;;;4.63;4.23;;;24.10;23.80;;;;;;4938994;29;20441;-89
2022/03/10 12:10:16;;;;;;;4.50;4.10;;;24.50;24.10;;;;;;4945748;29;20500;-88
2022/03/10 12:12:46;;;;;;;4.97;4.50;;;24.70;24.10;;;;;;4935729;29;20455;-88
2022/03/10 12:15:41;;;;;;;5.70;5.20;;;24.80;23.80;;;;;;4920377;29;20480;-88
2022/03/10 12:18:16;;;;;;;5.30;4.83;;;25.20;24.00;;;;;;4920704;29;20521;-87
2022/03/10 12:20:44;;;;;;;10.30;4.57;;;25.60;23.60;;;;;;4921452;29;20531;-88
2022/03/10 12:23:13;;;;;;;4.50;4.10;;;25.60;23.40;;;;;;4920519;29;20486;-87
2022/03/10 12:25:41;;;;;;;4.83;4.37;;;25.00;23.10;;;;;;4926831;29;20461;-88
2022/03/10 12:28:11;;;;;;;5.03;4.63;;;24.80;23.40;;;;;;4939796;29;20890;-88
2022/03/10 12:30:44;;;;;;;8.20;4.53;;;24.70;24.00;;;;;;4939956;29;20525;-89
2022/03/10 12:33:12;;;;;;;6.00;5.47;;;25.10;23.80;;;;;;4920468;29;21015;-88
2022/03/10 12:35:40;;;;;;;7.43;5.77;;;26.30;23.20;;;;;;4928484;29;20463;-89
2022/03/10 12:38:08;;;;;;;5.40;4.30;;;26.10;22.60;;;;;;4938180;29;21030;-89
2022/03/10 12:40:36;;;;;;;4.90;4.40;;;25.50;22.80;;;;;;4938116;29;20557;-88
2022/03/10 12:43:05;;;;;;;5.50;4.73;;;25.70;22.50;;;;;;4919474;29;20463;-89
2022/03/10 12:45:42;;;;;;;5.67;5.17;;;25.80;22.70;;;;;;4923526;29;20461;-88
2022/03/10 12:48:14;;;;;;;6.87;5.93;;;25.30;23.00;;;;;;4928157;29;20457;-88